Terminal Aerodrome Forecast
Issued by NWS San Angelo, TX

Home | Current Version | Previous Version | Text Only | Print | Product List | Glossary On
Versions: 1 2 3 4 5 6 7 8 9 10 11 12 13 14
978
FTUS44 KSJT 252324
TAFSJT
TAF
KSJT 252324Z 2600/2624 17006KT P6SM SKC
     FM261400 19012G19KT P6SM SKC
     FM261500 23018G25KT P6SM SKC=

USA.gov is the U.S. government's official web portal to all federal, state and local government web resources and services.